createdAt,value
2023-05-20T00:01:26.537Z,9.10
2023-05-20T00:03:53.658Z,9.10
2023-05-20T00:06:21.042Z,9.10
2023-05-20T00:08:48.119Z,9.10
2023-05-20T00:11:15.161Z,9.10
2023-05-20T00:13:42.197Z,9.10
2023-05-20T00:16:09.381Z,9.10
2023-05-20T00:18:36.409Z,9.10
2023-05-20T00:21:03.372Z,9.00
2023-05-20T00:23:30.398Z,9.00
2023-05-20T00:25:59.168Z,9.00
2023-05-20T00:28:27.650Z,9.00
2023-05-20T00:30:55.629Z,8.90
2023-05-20T00:33:22.760Z,9.00
2023-05-20T00:35:49.796Z,9.00
2023-05-20T00:38:17.842Z,9.10
2023-05-20T00:40:44.816Z,9.00
2023-05-20T00:43:11.912Z,9.00
2023-05-20T00:45:39.417Z,9.00
2023-05-20T00:48:07.477Z,8.90
2023-05-20T00:50:34.611Z,9.00
2023-05-20T00:53:02.387Z,9.00
2023-05-20T00:55:29.777Z,8.90
2023-05-20T00:57:57.071Z,8.90
2023-05-20T01:00:24.269Z,8.80
2023-05-20T01:02:51.796Z,8.80
2023-05-20T01:05:18.860Z,8.70
2023-05-20T01:07:45.958Z,8.70
2023-05-20T01:10:13.007Z,8.60
2023-05-20T01:12:45.913Z,8.60
2023-05-20T01:15:15.824Z,8.70
2023-05-20T01:17:48.868Z,8.60
2023-05-20T01:20:16.163Z,8.70
2023-05-20T01:22:57.236Z,8.70
2023-05-20T01:25:25.265Z,8.60
2023-05-20T01:27:53.689Z,8.70
2023-05-20T01:30:22.228Z,8.60
2023-05-20T01:32:52.841Z,8.60
2023-05-20T01:35:22.452Z,8.60
2023-05-20T01:37:52.461Z,8.70
2023-05-20T01:40:20.167Z,8.70
2023-05-20T01:42:53.238Z,8.70
2023-05-20T01:45:21.204Z,8.70
2023-05-20T01:47:50.066Z,8.60
2023-05-20T01:50:17.317Z,8.60
2023-05-20T01:52:44.467Z,8.60
2023-05-20T01:55:11.609Z,8.50
2023-05-20T01:57:38.580Z,8.60
2023-05-20T02:00:07.012Z,8.50
2023-05-20T02:02:34.288Z,8.50
2023-05-20T02:05:01.476Z,8.50
2023-05-20T02:07:28.478Z,8.50
2023-05-20T02:09:55.683Z,8.60
2023-05-20T02:12:22.690Z,8.60
2023-05-20T02:14:50.760Z,8.60
2023-05-20T02:17:18.446Z,8.60
2023-05-20T02:19:46.779Z,8.60
2023-05-20T02:22:14.626Z,8.60
2023-05-20T02:24:43.544Z,8.60
2023-05-20T02:27:10.916Z,8.60
2023-05-20T02:29:38.057Z,8.60
2023-05-20T02:32:05.379Z,8.50
2023-05-20T02:34:33.284Z,8.60
2023-05-20T02:37:00.458Z,8.60
2023-05-20T02:39:28.617Z,8.50
2023-05-20T02:41:56.441Z,8.50
2023-05-20T02:44:23.619Z,8.50
2023-05-20T02:46:50.778Z,8.50
2023-05-20T02:49:17.710Z,8.60
2023-05-20T02:51:44.838Z,8.50
2023-05-20T02:54:12.222Z,8.50
2023-05-20T02:56:39.405Z,8.60
2023-05-20T02:59:07.367Z,8.50
2023-05-20T03:01:35.692Z,8.50
2023-05-20T03:04:03.470Z,8.60
2023-05-20T03:06:32.200Z,8.60
2023-05-20T03:08:59.684Z,8.60
2023-05-20T03:11:26.656Z,8.60
2023-05-20T03:13:53.804Z,8.60
2023-05-20T03:16:20.945Z,8.70
2023-05-20T03:18:48.439Z,8.70
2023-05-20T03:21:15.702Z,8.70
2023-05-20T03:23:42.726Z,8.80
2023-05-20T03:26:09.692Z,8.90
2023-05-20T03:28:36.883Z,8.90
2023-05-20T03:31:04.594Z,8.90
2023-05-20T03:33:31.656Z,9.00
2023-05-20T03:35:58.799Z,9.00
2023-05-20T03:38:25.852Z,9.10
2023-05-20T03:40:52.824Z,9.00
2023-05-20T03:43:19.834Z,9.10
2023-05-20T03:45:46.784Z,9.10
2023-05-20T03:48:13.804Z,9.20
2023-05-20T03:50:40.912Z,9.20
2023-05-20T03:53:07.906Z,9.20
2023-05-20T03:55:35.213Z,9.30
2023-05-20T03:58:02.669Z,9.30
2023-05-20T04:00:34.556Z,9.30
2023-05-20T04:03:02.197Z,9.30
2023-05-20T04:05:29.299Z,9.40
2023-05-20T04:07:57.618Z,9.50
2023-05-20T04:10:24.719Z,9.60
2023-05-20T04:12:52.568Z,9.60
2023-05-20T04:15:19.747Z,9.60
2023-05-20T04:17:48.615Z,9.80
2023-05-20T04:20:18.063Z,9.80
2023-05-20T04:22:45.729Z,9.90
2023-05-20T04:25:14.034Z,10.00
2023-05-20T04:27:41.084Z,10.10
2023-05-20T04:30:08.383Z,10.10
2023-05-20T04:32:36.012Z,10.20
2023-05-20T04:35:03.177Z,10.30
2023-05-20T04:37:32.148Z,10.40
2023-05-20T04:39:59.317Z,10.50
2023-05-20T04:42:26.282Z,10.60
2023-05-20T04:44:53.747Z,10.70
2023-05-20T04:47:20.839Z,10.80
2023-05-20T04:49:48.018Z,10.80
2023-05-20T04:52:14.966Z,10.90
2023-05-20T04:54:41.934Z,11.00
2023-05-20T04:57:09.085Z,11.20
2023-05-20T04:59:36.123Z,11.20
2023-05-20T05:02:03.119Z,11.40
2023-05-20T05:04:30.176Z,11.50
2023-05-20T05:06:57.161Z,11.60
2023-05-20T05:09:24.281Z,11.70
2023-05-20T05:11:51.442Z,11.70
2023-05-20T05:14:18.442Z,11.70
2023-05-20T05:16:45.753Z,11.90
2023-05-20T05:19:13.849Z,12.10
2023-05-20T05:21:41.001Z,12.10
2023-05-20T05:24:08.520Z,12.10
2023-05-20T05:26:35.656Z,12.20
2023-05-20T05:29:02.601Z,12.30
2023-05-20T05:31:29.617Z,12.40
2023-05-20T05:33:59.684Z,12.40
2023-05-20T05:36:26.831Z,12.50
2023-05-20T05:38:53.768Z,12.60
2023-05-20T05:41:21.819Z,12.60
2023-05-20T05:43:48.765Z,12.70
2023-05-20T05:46:15.919Z,12.80
2023-05-20T05:48:43.030Z,12.90
2023-05-20T05:51:10.389Z,13.10
2023-05-20T05:53:37.387Z,13.20
2023-05-20T05:56:04.600Z,13.20
2023-05-20T05:58:32.069Z,13.30
2023-05-20T06:00:59.262Z,13.50
2023-05-20T06:03:26.857Z,13.50
2023-05-20T06:05:53.928Z,13.70
2023-05-20T06:08:20.990Z,13.70
2023-05-20T06:10:49.659Z,13.80
2023-05-20T06:13:17.076Z,13.80
2023-05-20T06:15:46.247Z,13.90
2023-05-20T06:18:13.617Z,13.90
2023-05-20T06:20:41.158Z,14.10
2023-05-20T06:23:08.159Z,14.20
2023-05-20T06:25:35.259Z,14.30
2023-05-20T06:28:02.497Z,14.60
2023-05-20T06:30:29.487Z,14.60
2023-05-20T06:32:56.624Z,14.40
2023-05-20T06:35:23.648Z,14.60
2023-05-20T06:37:50.744Z,14.70
2023-05-20T06:40:17.893Z,14.90
2023-05-20T06:42:44.993Z,15.00
2023-05-20T06:45:12.369Z,15.50
2023-05-20T06:47:39.619Z,16.10
2023-05-20T06:50:07.055Z,17.30
2023-05-20T06:52:34.100Z,18.20
2023-05-20T06:55:01.098Z,18.60
2023-05-20T06:57:28.115Z,17.80
2023-05-20T06:59:55.110Z,16.80
2023-05-20T07:02:22.809Z,17.40
2023-05-20T07:04:50.081Z,17.60
2023-05-20T07:07:17.546Z,17.60
2023-05-20T07:09:45.261Z,18.50
2023-05-20T07:12:12.343Z,18.60
2023-05-20T07:14:39.286Z,19.10
2023-05-20T07:17:06.729Z,18.70
2023-05-20T07:19:33.981Z,18.90
2023-05-20T07:22:01.237Z,19.30
2023-05-20T07:24:28.315Z,18.60
2023-05-20T07:26:55.402Z,18.30
2023-05-20T07:29:22.401Z,18.60
2023-05-20T07:31:49.574Z,19.40
2023-05-20T07:34:16.648Z,19.60
2023-05-20T07:36:43.893Z,19.10
2023-05-20T07:39:14.365Z,19.30
2023-05-20T07:41:42.446Z,20.20
2023-05-20T07:44:11.477Z,20.90
2023-05-20T07:46:39.008Z,21.70
2023-05-20T07:49:09.186Z,21.40
2023-05-20T07:51:39.388Z,21.90
2023-05-20T07:54:06.543Z,20.90
2023-05-20T07:56:33.516Z,20.90
2023-05-20T07:59:01.108Z,21.40
2023-05-20T08:01:28.140Z,21.80
2023-05-20T08:03:55.627Z,22.40
2023-05-20T08:06:24.449Z,21.10
2023-05-20T08:08:51.638Z,20.40
2023-05-20T08:11:18.752Z,19.60
2023-05-20T08:13:46.017Z,20.20
2023-05-20T08:16:13.026Z,21.10
2023-05-20T08:18:40.073Z,20.60
2023-05-20T08:21:10.229Z,20.40
2023-05-20T08:23:39.653Z,20.30
2023-05-20T08:26:07.805Z,20.50
2023-05-20T08:28:34.904Z,21.60
2023-05-20T08:31:02.516Z,22.50
2023-05-20T08:33:29.660Z,22.40
2023-05-20T08:35:56.940Z,21.70
2023-05-20T08:38:23.901Z,21.00
2023-05-20T08:40:58.105Z,21.80
2023-05-20T08:43:26.511Z,20.50
2023-05-20T08:45:53.597Z,20.40
2023-05-20T08:48:23.802Z,21.60
2023-05-20T08:50:52.730Z,21.70
2023-05-20T08:53:22.122Z,22.00
2023-05-20T08:56:00.760Z,23.00
2023-05-20T08:58:31.810Z,22.90
2023-05-20T09:00:59.179Z,22.20
2023-05-20T09:03:26.578Z,21.60
2023-05-20T09:05:53.967Z,21.50
2023-05-20T09:08:26.648Z,21.40
2023-05-20T09:10:54.638Z,21.40
2023-05-20T09:13:23.758Z,21.70
2023-05-20T09:15:51.392Z,21.40
2023-05-20T09:18:18.551Z,21.80
2023-05-20T09:20:50.990Z,21.40
2023-05-20T09:23:21.867Z,21.10
2023-05-20T09:25:52.542Z,20.70
2023-05-20T09:28:20.982Z,20.90
2023-05-20T09:30:50.884Z,21.10
2023-05-20T09:33:18.276Z,21.90
2023-05-20T09:35:45.325Z,22.90
2023-05-20T09:38:14.263Z,22.40
2023-05-20T09:40:43.746Z,22.30
2023-05-20T09:43:11.665Z,21.50
2023-05-20T09:45:40.549Z,21.80
2023-05-20T09:48:11.021Z,21.60
2023-05-20T09:50:38.504Z,21.00
2023-05-20T09:53:06.608Z,20.40
2023-05-20T09:55:34.437Z,20.40
2023-05-20T09:58:03.454Z,21.10
2023-05-20T10:00:31.740Z,21.00
2023-05-20T10:02:59.674Z,20.80
2023-05-20T10:05:52.859Z,20.70
2023-05-20T10:08:34.844Z,20.40
2023-05-20T10:11:19.908Z,20.90
2023-05-20T10:14:05.973Z,22.30
2023-05-20T10:16:50.837Z,21.10
2023-05-20T10:19:32.299Z,21.20
2023-05-20T10:22:05.047Z,21.20
2023-05-20T10:24:38.146Z,21.70
2023-05-20T10:27:09.176Z,21.10
2023-05-20T10:32:30.043Z,21.10
2023-05-20T10:35:05.543Z,20.90
2023-05-20T10:37:40.099Z,20.80
2023-05-20T10:40:19.845Z,21.20
2023-05-20T10:42:49.920Z,21.60
2023-05-20T10:45:27.796Z,21.50
2023-05-20T10:47:57.255Z,22.00
2023-05-20T10:50:35.745Z,21.90
2023-05-20T10:53:13.030Z,21.30
2023-05-20T10:55:51.900Z,21.10
2023-05-20T10:58:20.059Z,21.10
2023-05-20T11:00:50.818Z,20.80
2023-05-20T11:03:18.812Z,21.30
2023-05-20T11:05:49.553Z,21.70
2023-05-20T11:08:27.851Z,21.00
2023-05-20T11:10:59.545Z,20.90
2023-05-20T11:13:27.174Z,21.60
2023-05-20T11:15:54.474Z,22.30
2023-05-20T11:18:21.512Z,22.40
2023-05-20T11:20:48.729Z,22.20
2023-05-20T11:23:16.187Z,22.40
2023-05-20T11:25:43.286Z,22.00
2023-05-20T11:28:14.514Z,21.90
2023-05-20T11:30:43.370Z,21.90
2023-05-20T11:33:12.987Z,21.20
2023-05-20T11:35:54.609Z,21.00
2023-05-20T11:38:22.193Z,21.10
2023-05-20T11:40:56.618Z,22.00
2023-05-20T11:43:24.504Z,22.50
2023-05-20T11:46:01.199Z,22.10
2023-05-20T11:48:28.442Z,21.80
2023-05-20T11:50:57.073Z,22.00
2023-05-20T11:53:25.429Z,22.00
2023-05-20T11:55:56.085Z,22.00
2023-05-20T11:58:31.112Z,21.20
2023-05-20T12:01:08.918Z,20.90
2023-05-20T12:03:41.278Z,21.70
2023-05-20T12:06:08.553Z,21.50
2023-05-20T12:08:35.570Z,21.60
2023-05-20T12:11:02.579Z,22.00
2023-05-20T12:13:29.625Z,22.30
2023-05-20T12:15:56.704Z,21.80
2023-05-20T12:18:23.992Z,21.90
2023-05-20T12:20:51.147Z,21.80
2023-05-20T12:23:18.249Z,21.40
2023-05-20T12:25:47.424Z,21.10
2023-05-20T12:28:14.882Z,21.00
2023-05-20T12:30:42.084Z,20.90
2023-05-20T12:33:09.671Z,19.90
2023-05-20T12:35:39.658Z,19.90
2023-05-20T12:38:07.457Z,19.60
2023-05-20T12:40:35.510Z,19.90
2023-05-20T12:43:04.449Z,20.70
2023-05-20T12:45:32.237Z,20.80
2023-05-20T12:47:59.645Z,20.30
2023-05-20T12:50:27.872Z,19.90
2023-05-20T12:52:55.110Z,20.60
2023-05-20T12:55:22.265Z,20.80
2023-05-20T12:57:50.171Z,20.90
2023-05-20T13:00:17.858Z,20.50
2023-05-20T13:02:44.967Z,20.90
2023-05-20T13:05:12.534Z,20.90
2023-05-20T13:07:40.321Z,20.60
2023-05-20T13:10:08.564Z,20.80
2023-05-20T13:12:36.032Z,21.00
2023-05-20T13:15:03.908Z,20.40
2023-05-20T13:17:31.183Z,20.50
2023-05-20T13:19:58.613Z,20.50
2023-05-20T13:22:25.790Z,20.30
2023-05-20T13:24:52.777Z,20.60
2023-05-20T13:27:19.920Z,20.40
2023-05-20T13:29:47.083Z,19.80
2023-05-20T13:32:14.037Z,20.00
2023-05-20T13:34:41.442Z,20.10
2023-05-20T13:37:08.455Z,20.50
2023-05-20T13:39:36.518Z,20.70
2023-05-20T13:42:04.488Z,20.30
2023-05-20T13:44:32.651Z,20.70
2023-05-20T13:47:00.076Z,20.20
2023-05-20T13:49:27.219Z,19.70
2023-05-20T13:51:54.230Z,19.50
2023-05-20T13:54:22.631Z,19.50
2023-05-20T13:56:49.792Z,19.40
2023-05-20T13:59:17.112Z,19.40
2023-05-20T14:01:45.516Z,19.20
2023-05-20T14:04:13.360Z,19.70
2023-05-20T14:06:40.626Z,20.20
2023-05-20T14:09:11.238Z,20.40
2023-05-20T14:11:38.754Z,21.20
2023-05-20T14:14:05.895Z,20.30
2023-05-20T14:16:33.372Z,21.10
2023-05-20T14:19:01.548Z,21.30
2023-05-20T14:21:28.604Z,20.90
2023-05-20T14:23:55.987Z,21.10
2023-05-20T14:26:23.413Z,21.10
2023-05-20T14:28:50.468Z,21.80
2023-05-20T14:31:17.660Z,21.80
2023-05-20T14:33:44.798Z,22.10
2023-05-20T14:36:12.054Z,21.90
2023-05-20T14:38:39.063Z,22.20
2023-05-20T14:41:06.263Z,22.50
2023-05-20T14:43:33.369Z,22.40
2023-05-20T14:46:05.725Z,22.40
2023-05-20T14:48:32.901Z,22.50
2023-05-20T14:51:00.006Z,22.30
2023-05-20T14:53:27.118Z,21.80
2023-05-20T14:55:54.088Z,21.30
2023-05-20T14:58:21.207Z,20.90
2023-05-20T15:00:48.255Z,21.50
2023-05-20T15:03:15.385Z,21.10
2023-05-20T15:05:42.697Z,20.70
2023-05-20T15:08:09.780Z,20.60
2023-05-20T15:10:37.287Z,20.30
2023-05-20T15:13:04.538Z,20.30
2023-05-20T15:15:31.929Z,20.40
2023-05-20T15:17:59.062Z,20.40
2023-05-20T15:20:26.552Z,20.00
2023-05-20T15:22:54.291Z,20.10
2023-05-20T15:25:21.533Z,20.50
2023-05-20T15:27:49.271Z,20.70
2023-05-20T15:30:17.178Z,20.50
2023-05-20T15:32:44.453Z,21.00
2023-05-20T15:35:11.647Z,21.30
2023-05-20T15:37:38.670Z,21.00
2023-05-20T15:40:06.873Z,20.30
2023-05-20T15:42:33.841Z,20.20
2023-05-20T15:45:02.477Z,20.50
2023-05-20T15:47:29.712Z,20.30
2023-05-20T15:49:57.499Z,20.40
2023-05-20T15:52:24.651Z,19.80
2023-05-20T15:54:51.883Z,19.60
2023-05-20T15:57:19.162Z,19.80
2023-05-20T15:59:46.217Z,19.90
2023-05-20T16:02:13.396Z,19.80
2023-05-20T16:04:40.625Z,19.60
2023-05-20T16:07:07.657Z,19.40
2023-05-20T16:09:34.872Z,18.90
2023-05-20T16:12:02.413Z,19.10
2023-05-20T16:14:29.373Z,18.90
2023-05-20T16:16:56.451Z,18.90
2023-05-20T16:19:24.175Z,18.80
2023-05-20T16:21:51.162Z,19.00
2023-05-20T16:24:18.186Z,19.20
2023-05-20T16:26:45.347Z,18.90
2023-05-20T16:29:13.404Z,19.00
2023-05-20T16:31:42.133Z,19.30
2023-05-20T16:34:09.212Z,19.20
2023-05-20T16:36:36.796Z,19.00
2023-05-20T16:39:04.618Z,19.00
2023-05-20T16:41:31.787Z,18.60
2023-05-20T16:43:59.120Z,18.70
2023-05-20T16:46:26.183Z,18.60
2023-05-20T16:48:53.120Z,18.50
2023-05-20T16:51:20.174Z,18.40
2023-05-20T16:53:47.222Z,18.60
2023-05-20T16:56:14.379Z,18.40
2023-05-20T16:58:41.757Z,18.00
2023-05-20T17:01:08.834Z,18.30
2023-05-20T17:03:36.172Z,18.30
2023-05-20T17:06:03.227Z,18.40
2023-05-20T17:08:30.277Z,18.50
2023-05-20T17:10:59.308Z,18.40
2023-05-20T17:13:26.292Z,18.20
2023-05-20T17:15:53.391Z,18.10
2023-05-20T17:18:20.640Z,17.90
2023-05-20T17:20:47.640Z,17.80
2023-05-20T17:23:15.085Z,17.60
2023-05-20T17:25:42.118Z,17.90
2023-05-20T17:28:09.210Z,17.80
2023-05-20T17:30:36.501Z,17.90
2023-05-20T17:33:03.728Z,17.50
2023-05-20T17:35:31.831Z,17.40
2023-05-20T17:37:58.939Z,17.30
2023-05-20T17:40:26.310Z,17.30
2023-05-20T17:42:53.397Z,17.20
2023-05-20T17:45:20.624Z,17.10
2023-05-20T17:47:47.740Z,17.10
2023-05-20T17:50:16.687Z,16.90
2023-05-20T17:52:44.167Z,16.90
2023-05-20T17:55:11.253Z,16.90
2023-05-20T17:57:38.229Z,16.80
2023-05-20T18:00:06.744Z,16.80
2023-05-20T18:02:33.864Z,16.60
2023-05-20T18:05:01.191Z,16.60
2023-05-20T18:07:28.285Z,16.40
2023-05-20T18:09:55.396Z,16.30
2023-05-20T18:12:22.556Z,16.30
2023-05-20T18:14:49.546Z,16.30
2023-05-20T18:17:16.827Z,16.30
2023-05-20T18:19:43.851Z,16.30
2023-05-20T18:22:11.029Z,16.20
2023-05-20T18:24:38.132Z,16.10
2023-05-20T18:27:05.711Z,16.00
2023-05-20T18:29:32.810Z,15.90
2023-05-20T18:31:59.872Z,15.80
2023-05-20T18:34:26.874Z,15.80
2023-05-20T18:36:53.926Z,15.60
2023-05-20T18:39:21.257Z,15.50
2023-05-20T18:41:49.250Z,15.40
2023-05-20T18:44:17.780Z,15.40
2023-05-20T18:46:45.600Z,15.30
2023-05-20T18:49:12.600Z,15.20
2023-05-20T18:51:41.223Z,15.20
2023-05-20T18:54:08.664Z,15.00
2023-05-20T18:56:36.149Z,14.90
2023-05-20T18:59:03.484Z,14.80
2023-05-20T19:01:31.247Z,14.80
2023-05-20T19:03:58.300Z,14.80
2023-05-20T19:06:25.561Z,14.80
2023-05-20T19:08:52.573Z,14.70
2023-05-20T19:11:19.554Z,14.70
2023-05-20T19:13:47.171Z,14.60
2023-05-20T19:16:14.227Z,14.50
2023-05-20T19:18:41.317Z,14.40
2023-05-20T19:21:08.307Z,14.30
2023-05-20T19:23:35.290Z,14.20
2023-05-20T19:26:02.392Z,14.10
2023-05-20T19:28:29.366Z,14.00
2023-05-20T19:30:56.497Z,13.90
2023-05-20T19:33:23.501Z,13.90
2023-05-20T19:35:50.594Z,13.80
2023-05-20T19:38:17.678Z,13.80
2023-05-20T19:40:45.053Z,13.80
2023-05-20T19:43:12.021Z,13.70
2023-05-20T19:45:39.255Z,13.50
2023-05-20T19:48:07.148Z,13.50
2023-05-20T19:50:34.501Z,13.50
2023-05-20T19:53:06.259Z,13.60
2023-05-20T19:55:35.872Z,13.40
2023-05-20T19:58:03.572Z,13.30
2023-05-20T20:00:30.516Z,13.20
2023-05-20T20:02:57.919Z,13.20
2023-05-20T20:05:26.081Z,13.20
2023-05-20T20:07:53.302Z,13.20
2023-05-20T20:10:20.530Z,13.10
2023-05-20T20:12:47.682Z,13.00
2023-05-20T20:15:14.820Z,13.10
2023-05-20T20:17:45.706Z,13.10
2023-05-20T20:20:14.381Z,12.90
2023-05-20T20:22:42.006Z,12.80
2023-05-20T20:25:09.374Z,12.80
2023-05-20T20:27:36.364Z,12.80
2023-05-20T20:30:03.662Z,12.70
2023-05-20T20:32:30.748Z,12.70
2023-05-20T20:34:58.322Z,12.70
2023-05-20T20:37:26.944Z,12.60
2023-05-20T20:39:55.351Z,12.60
2023-05-20T20:42:26.573Z,12.50
2023-05-20T20:44:53.580Z,12.40
2023-05-20T20:47:20.579Z,12.50
2023-05-20T20:49:47.734Z,12.40
2023-05-20T20:52:14.825Z,12.50
2023-05-20T20:54:43.397Z,12.40
2023-05-20T20:57:11.664Z,12.30
2023-05-20T20:59:39.891Z,12.30
2023-05-20T21:02:07.383Z,12.20
2023-05-20T21:04:34.443Z,12.20
2023-05-20T21:07:02.300Z,12.30
2023-05-20T21:09:29.492Z,12.30
2023-05-20T21:11:57.420Z,12.20
2023-05-20T21:14:25.619Z,12.10
2023-05-20T21:16:52.711Z,12.10
2023-05-20T21:19:19.877Z,12.10
2023-05-20T21:21:48.097Z,12.00
2023-05-20T21:24:15.227Z,12.00
2023-05-20T21:26:42.162Z,11.90
2023-05-20T21:29:12.098Z,11.80
2023-05-20T21:31:39.433Z,11.80
2023-05-20T21:34:06.410Z,11.80
2023-05-20T21:36:33.481Z,11.70
2023-05-20T21:39:00.657Z,11.70
2023-05-20T21:41:27.723Z,11.60
2023-05-20T21:43:54.734Z,11.60
2023-05-20T21:46:21.961Z,11.70
2023-05-20T21:48:49.002Z,11.60
2023-05-20T21:51:16.195Z,11.60
2023-05-20T21:53:43.497Z,11.70
2023-05-20T21:56:10.691Z,11.80
2023-05-20T21:58:41.336Z,11.80
2023-05-20T22:01:10.086Z,11.70
2023-05-20T22:03:38.377Z,11.70
2023-05-20T22:06:06.110Z,11.70
2023-05-20T22:08:35.859Z,11.70
2023-05-20T22:11:07.369Z,11.80
2023-05-20T22:13:35.855Z,11.60
2023-05-20T22:16:05.283Z,11.50
2023-05-20T22:18:32.725Z,11.50
2023-05-20T22:21:00.361Z,11.50
2023-05-20T22:23:28.571Z,11.50
2023-05-20T22:25:56.013Z,11.50
2023-05-20T22:28:23.810Z,11.50
2023-05-20T22:30:51.696Z,11.50
2023-05-20T22:33:18.824Z,11.40
2023-05-20T22:35:46.075Z,11.30
2023-05-20T22:38:13.145Z,11.40
2023-05-20T22:40:40.149Z,11.30
2023-05-20T22:43:07.223Z,11.20
2023-05-20T22:45:34.757Z,11.30
2023-05-20T22:48:02.205Z,11.20
2023-05-20T22:50:29.245Z,11.20
2023-05-20T22:52:56.555Z,11.30
2023-05-20T22:55:24.078Z,11.20
2023-05-20T22:57:51.518Z,11.10
2023-05-20T23:00:19.106Z,11.10
2023-05-20T23:02:49.953Z,11.00
2023-05-20T23:05:17.424Z,10.90
2023-05-20T23:07:45.254Z,10.90
2023-05-20T23:10:12.284Z,10.90
2023-05-20T23:12:39.372Z,10.90
2023-05-20T23:15:07.191Z,10.80
2023-05-20T23:17:34.152Z,10.90
2023-05-20T23:20:01.276Z,10.90
2023-05-20T23:22:28.357Z,10.80
2023-05-20T23:24:55.446Z,10.80
2023-05-20T23:27:22.679Z,10.70
2023-05-20T23:29:49.693Z,10.70
2023-05-20T23:32:16.640Z,10.70
2023-05-20T23:34:43.696Z,10.70
2023-05-20T23:37:10.698Z,10.70
2023-05-20T23:39:37.835Z,10.80
2023-05-20T23:42:05.513Z,10.70
2023-05-20T23:44:32.511Z,10.70
2023-05-20T23:46:59.566Z,10.70
2023-05-20T23:49:27.287Z,10.80
2023-05-20T23:51:54.409Z,10.80
2023-05-20T23:54:22.905Z,10.60
2023-05-20T23:56:50.302Z,10.80
2023-05-20T23:59:17.460Z,10.80
